createdAt,value
2023-01-13T00:01:37.663Z,14.40
2023-01-13T00:04:08.402Z,13.65
2023-01-13T00:06:39.035Z,14.80
2023-01-13T00:09:09.545Z,15.07
2023-01-13T00:11:40.092Z,13.77
2023-01-13T00:14:12.198Z,14.05
2023-01-13T00:16:42.749Z,15.48
2023-01-13T00:19:13.399Z,15.25
2023-01-13T00:21:44.881Z,14.10
2023-01-13T00:24:15.511Z,12.23
2023-01-13T00:26:46.116Z,11.57
2023-01-13T00:29:21.211Z,12.70
2023-01-13T00:31:53.125Z,13.30
2023-01-13T00:34:24.680Z,13.82
2023-01-13T00:36:55.574Z,14.52
2023-01-13T00:39:26.227Z,15.10
2023-01-13T00:42:13.450Z,13.60
2023-01-13T00:44:45.701Z,14.70
2023-01-13T00:47:16.512Z,14.43
2023-01-13T00:49:47.679Z,12.98
2023-01-13T00:52:18.567Z,13.82
2023-01-13T00:54:49.865Z,16.00
2023-01-13T00:57:21.336Z,16.73
2023-01-13T00:59:53.736Z,16.90
2023-01-13T01:02:24.798Z,17.98
2023-01-13T01:04:55.517Z,16.17
2023-01-13T01:07:26.174Z,19.05
2023-01-13T01:09:57.033Z,20.35
2023-01-13T01:12:27.697Z,19.75
2023-01-13T01:15:00.012Z,20.52
2023-01-13T01:17:31.424Z,20.70
2023-01-13T01:20:01.845Z,20.55
2023-01-13T01:22:32.476Z,19.70
2023-01-13T01:25:02.935Z,20.83
2023-01-13T01:27:33.377Z,20.45
2023-01-13T01:30:05.577Z,21.77
2023-01-13T01:32:37.524Z,22.20
2023-01-13T01:35:08.845Z,21.08
2023-01-13T01:37:39.337Z,20.52
2023-01-13T01:40:10.877Z,17.35
2023-01-13T01:42:58.337Z,19.25
2023-01-13T01:45:33.418Z,18.48
2023-01-13T01:48:07.388Z,18.58
2023-01-13T01:50:39.083Z,18.58
2023-01-13T01:53:15.493Z,17.65
2023-01-13T01:55:46.322Z,17.02
2023-01-13T01:58:21.804Z,16.23
2023-01-13T02:00:54.401Z,14.45
2023-01-13T02:03:25.429Z,14.48
2023-01-13T02:05:56.243Z,13.57
2023-01-13T02:08:26.907Z,15.32
2023-01-13T02:10:57.683Z,13.15
2023-01-13T02:13:27.080Z,14.55
2023-01-13T02:16:06.263Z,16.40
2023-01-13T02:18:53.422Z,19.30
2023-01-13T02:21:43.983Z,20.92
2023-01-13T02:24:56.505Z,20.83
2023-01-13T02:27:46.230Z,22.88
2023-01-13T02:30:43.537Z,23.63
2023-01-13T02:33:31.578Z,21.75
2023-01-13T02:36:08.559Z,24.42
2023-01-13T02:38:46.695Z,21.58
2023-01-13T02:41:54.910Z,22.55
2023-01-13T02:44:31.259Z,22.83
2023-01-13T02:47:09.273Z,23.88
2023-01-13T02:49:43.598Z,21.77
2023-01-13T02:52:16.979Z,23.27
2023-01-13T02:54:51.915Z,22.88
2023-01-13T02:57:25.034Z,22.35
2023-01-13T02:59:58.468Z,21.67
2023-01-13T03:02:31.669Z,21.73
2023-01-13T03:05:03.123Z,22.98
2023-01-13T03:07:57.933Z,22.17
2023-01-13T03:10:48.344Z,23.35
2023-01-13T03:13:31.836Z,22.00
2023-01-13T03:16:13.999Z,24.58
2023-01-13T03:18:53.713Z,21.95
2023-01-13T03:21:28.886Z,21.67
2023-01-13T03:24:06.328Z,23.10
2023-01-13T03:26:44.000Z,24.25
2023-01-13T03:29:21.531Z,21.95
2023-01-13T03:32:00.950Z,19.50
2023-01-13T03:34:38.023Z,18.40
2023-01-13T03:37:11.095Z,18.17
2023-01-13T03:39:47.338Z,18.48
2023-01-13T03:42:22.423Z,17.90
2023-01-13T03:44:57.274Z,18.02
2023-01-13T03:47:34.174Z,16.27
2023-01-13T03:50:09.312Z,14.07
2023-01-13T03:52:44.068Z,14.75
2023-01-13T03:55:19.379Z,13.80
2023-01-13T03:57:55.497Z,13.55
2023-01-13T04:00:29.262Z,13.35
2023-01-13T04:03:07.763Z,13.18
2023-01-13T04:05:44.824Z,12.38
2023-01-13T04:08:22.287Z,12.38
2023-01-13T04:10:56.291Z,13.70
2023-01-13T04:13:31.315Z,13.02
2023-01-13T04:16:08.488Z,11.88
2023-01-13T04:18:41.763Z,13.00
2023-01-13T04:21:14.136Z,12.80
2023-01-13T04:23:45.396Z,11.35
2023-01-13T04:26:16.023Z,12.90
2023-01-13T04:28:46.518Z,11.68
2023-01-13T04:31:17.379Z,10.85
2023-01-13T04:33:48.043Z,10.95
2023-01-13T04:36:20.537Z,11.60
2023-01-13T04:38:51.117Z,11.82
2023-01-13T04:41:21.805Z,11.18
2023-01-13T04:43:52.532Z,11.60
2023-01-13T04:46:23.265Z,11.57
2023-01-13T04:48:53.898Z,10.95
2023-01-13T04:51:26.091Z,12.05
2023-01-13T04:53:56.599Z,12.38
2023-01-13T04:56:27.218Z,12.68
2023-01-13T04:58:57.656Z,12.40
2023-01-13T05:01:28.326Z,12.40
2023-01-13T05:03:58.979Z,11.85
2023-01-13T05:06:31.179Z,13.15
2023-01-13T05:09:01.728Z,12.15
2023-01-13T05:11:49.269Z,13.43
2023-01-13T05:14:36.560Z,14.80
2023-01-13T05:17:07.125Z,13.85
2023-01-13T05:19:39.967Z,12.85
2023-01-13T05:22:28.997Z,13.95
2023-01-13T05:25:16.384Z,13.65
2023-01-13T05:27:47.086Z,14.43
2023-01-13T05:30:18.290Z,15.25
2023-01-13T05:32:49.043Z,15.25
2023-01-13T05:35:19.950Z,14.98
2023-01-13T05:37:52.318Z,14.40
2023-01-13T05:40:39.653Z,14.38
2023-01-13T05:43:23.757Z,15.05
2023-01-13T05:45:58.665Z,15.25
2023-01-13T05:48:31.552Z,17.25
2023-01-13T05:51:03.032Z,14.80
2023-01-13T05:53:35.692Z,16.27
2023-01-13T05:56:07.795Z,14.90
2023-01-13T05:58:38.708Z,13.68
2023-01-13T06:01:10.991Z,14.40
2023-01-13T06:03:41.687Z,14.00
2023-01-13T06:06:12.202Z,13.57
2023-01-13T06:08:44.726Z,13.07
2023-01-13T06:11:15.235Z,14.77
2023-01-13T06:13:45.751Z,15.25
2023-01-13T06:16:16.410Z,19.52
2023-01-13T06:18:46.896Z,21.48
2023-01-13T06:21:17.383Z,15.60
2023-01-13T06:23:49.650Z,17.20
2023-01-13T06:26:23.215Z,14.10
2023-01-13T06:28:54.023Z,14.23
2023-01-13T06:31:24.925Z,15.85
2023-01-13T06:33:59.788Z,13.88
2023-01-13T06:36:34.033Z,13.82
2023-01-13T06:39:07.589Z,13.98
2023-01-13T06:41:54.827Z,15.50
2023-01-13T06:44:27.178Z,18.35
2023-01-13T06:46:57.801Z,16.88
2023-01-13T06:49:28.419Z,15.85
2023-01-13T06:51:59.116Z,15.38
2023-01-13T06:54:31.623Z,14.20
2023-01-13T06:57:02.252Z,14.60
2023-01-13T06:59:35.121Z,15.20
2023-01-13T07:02:06.166Z,15.63
2023-01-13T07:04:36.877Z,16.30
2023-01-13T07:07:08.611Z,14.80
2023-01-13T07:09:40.712Z,15.18
2023-01-13T07:12:11.378Z,14.13
2023-01-13T07:14:58.885Z,15.98
2023-01-13T07:17:29.307Z,13.52
2023-01-13T07:20:02.606Z,12.95
2023-01-13T07:22:33.104Z,13.73
2023-01-13T07:25:05.191Z,14.60
2023-01-13T07:27:35.699Z,14.70
2023-01-13T07:30:06.955Z,14.05
2023-01-13T07:32:37.522Z,15.90
2023-01-13T07:35:09.001Z,14.48
2023-01-13T07:37:40.641Z,14.85
2023-01-13T07:40:14.204Z,14.80
2023-01-13T07:43:01.722Z,14.10
2023-01-13T07:45:32.269Z,16.30
2023-01-13T07:48:02.761Z,15.45
2023-01-13T07:50:33.253Z,14.93
2023-01-13T07:53:03.815Z,15.50
2023-01-13T07:55:35.877Z,15.68
2023-01-13T07:58:07.273Z,17.75
2023-01-13T08:00:38.737Z,16.50
2023-01-13T08:03:12.325Z,18.60
2023-01-13T08:05:43.034Z,19.67
2023-01-13T08:08:15.833Z,19.17
2023-01-13T08:10:48.810Z,21.60
2023-01-13T08:13:28.173Z,20.15
2023-01-13T08:16:04.449Z,18.92
2023-01-13T08:19:00.245Z,17.55
2023-01-13T08:38:08.890Z,17.13
2023-01-13T09:34:25.340Z,18.80
2023-01-13T09:36:56.764Z,19.23
2023-01-13T09:39:27.304Z,17.85
2023-01-13T09:42:17.425Z,17.65
2023-01-13T09:47:34.788Z,21.38
2023-01-13T09:50:20.809Z,18.17
2023-01-13T09:52:54.345Z,17.05
2023-01-13T09:55:31.481Z,18.02
2023-01-13T09:58:08.671Z,15.98
2023-01-13T10:00:48.027Z,15.32
2023-01-13T10:03:25.289Z,15.10
2023-01-13T10:06:05.670Z,15.95
2023-01-13T10:08:41.355Z,15.48
2023-01-13T10:11:34.631Z,25.33
2023-01-13T10:14:17.598Z,22.55
2023-01-13T10:17:00.131Z,23.67
2023-01-13T10:19:39.920Z,18.60
2023-01-13T10:22:30.940Z,14.95
2023-01-13T10:25:35.218Z,17.20
2023-01-13T10:28:13.249Z,16.38
2023-01-13T10:30:47.108Z,17.60
2023-01-13T10:34:07.107Z,16.98
2023-01-13T10:40:22.991Z,17.58
2023-01-13T10:47:28.016Z,18.55
2023-01-13T10:50:21.267Z,17.25
2023-01-13T10:53:04.379Z,17.73
2023-01-13T10:56:04.866Z,18.88
2023-01-13T10:58:36.407Z,25.35
2023-01-13T11:01:10.666Z,21.85
2023-01-13T11:03:45.474Z,16.38
2023-01-13T11:06:25.374Z,16.75
2023-01-13T11:08:59.411Z,15.07
2023-01-13T11:11:48.455Z,14.80
2023-01-13T11:14:38.038Z,15.02
2023-01-13T11:17:32.172Z,15.38
2023-01-13T11:20:17.758Z,15.50
2023-01-13T11:22:52.559Z,15.18
2023-01-13T11:25:33.413Z,15.48
2023-01-13T11:28:17.915Z,15.15
2023-01-13T11:30:54.427Z,15.60
2023-01-13T11:33:42.034Z,15.98
2023-01-13T11:36:20.407Z,15.57
2023-01-13T11:38:54.567Z,16.33
2023-01-13T11:41:35.710Z,23.60
2023-01-13T11:44:21.236Z,21.80
2023-01-13T11:46:54.812Z,16.60
2023-01-13T11:49:30.102Z,17.70
2023-01-13T11:52:08.112Z,20.45
2023-01-13T11:55:12.408Z,18.23
2023-01-13T11:58:07.392Z,16.85
2023-01-13T12:00:58.742Z,15.32
2023-01-13T12:03:42.414Z,15.05
2023-01-13T12:06:26.351Z,16.15
2023-01-13T12:09:28.498Z,14.57
2023-01-13T12:12:24.082Z,15.93
2023-01-13T12:15:11.658Z,15.77
2023-01-13T12:17:59.994Z,13.32
2023-01-13T12:20:41.803Z,12.10
2023-01-13T12:23:25.227Z,11.50
2023-01-13T12:26:02.266Z,11.52
2023-01-13T12:28:47.589Z,11.32
2023-01-13T12:31:21.862Z,12.35
2023-01-13T12:38:29.180Z,11.00
2023-01-13T12:41:09.472Z,10.60
2023-01-13T12:44:08.107Z,13.02
2023-01-13T12:47:01.921Z,12.63
2023-01-13T12:49:49.460Z,10.40
2023-01-13T12:52:20.988Z,12.60
2023-01-13T12:55:20.007Z,11.57
2023-01-13T12:58:18.815Z,12.65
2023-01-13T13:01:03.057Z,9.32
2023-01-13T13:03:38.399Z,13.70
2023-01-13T13:06:20.581Z,14.60
2023-01-13T13:09:05.754Z,13.25
2023-01-13T13:15:22.225Z,15.02
2023-01-13T13:22:20.290Z,16.20
2023-01-13T13:25:32.391Z,14.27
2023-01-13T13:32:15.568Z,13.82
2023-01-13T13:35:15.925Z,17.40
2023-01-13T13:38:32.323Z,16.15
2023-01-13T13:44:55.555Z,15.98
2023-01-13T13:50:40.407Z,16.05
2023-01-13T13:56:56.614Z,16.98
2023-01-13T14:08:07.321Z,15.52
2023-01-13T14:10:43.407Z,14.85
2023-01-13T14:13:45.462Z,13.38
2023-01-13T14:20:51.094Z,12.98
2023-01-13T14:24:59.345Z,15.63
2023-01-13T14:28:02.266Z,14.00
2023-01-13T14:49:38.415Z,14.00
2023-01-13T14:53:32.182Z,13.87
2023-01-13T15:15:07.818Z,14.80
2023-01-13T15:18:58.615Z,14.07
2023-01-13T15:21:40.513Z,15.02
2023-01-13T15:25:20.362Z,15.88
2023-01-13T15:28:36.220Z,16.35
2023-01-13T15:31:21.877Z,15.13
2023-01-13T15:34:36.395Z,15.98
2023-01-13T15:45:13.706Z,14.93
2023-01-13T15:52:12.343Z,14.63
2023-01-13T15:59:02.145Z,13.10
2023-01-13T16:32:20.931Z,13.18
2023-01-13T16:54:52.152Z,10.73
2023-01-13T17:08:40.332Z,10.98
2023-01-13T17:14:36.190Z,10.95
2023-01-13T17:27:25.374Z,9.48
2023-01-13T17:38:33.307Z,8.10
2023-01-13T17:41:31.136Z,9.43
2023-01-13T17:54:47.823Z,10.30
2023-01-13T17:58:16.560Z,9.10
2023-01-13T18:13:10.533Z,9.48
2023-01-13T18:54:31.776Z,9.25
2023-01-13T19:00:44.819Z,8.60
2023-01-13T19:03:15.546Z,9.57
2023-01-13T19:05:48.245Z,8.75
2023-01-13T19:08:19.164Z,8.73
2023-01-13T19:10:50.779Z,8.48
2023-01-13T19:13:21.419Z,9.77
2023-01-13T19:15:53.736Z,7.22
2023-01-13T19:18:27.833Z,7.28
2023-01-13T19:21:05.246Z,8.13
2023-01-13T19:23:36.636Z,9.05
2023-01-13T19:26:09.107Z,5.57
2023-01-13T19:28:41.821Z,9.00
2023-01-13T19:31:21.454Z,9.52
2023-01-13T19:33:52.310Z,9.35
2023-01-13T19:36:23.330Z,7.32
2023-01-13T19:38:54.068Z,5.55
2023-01-13T19:41:41.185Z,9.35
2023-01-13T19:44:30.866Z,8.93
2023-01-13T19:47:04.535Z,8.68
2023-01-13T19:49:35.197Z,7.75
2023-01-13T19:52:08.890Z,7.70
2023-01-13T19:54:39.955Z,7.15
2023-01-13T19:57:11.885Z,6.10
2023-01-13T19:59:43.130Z,8.50
2023-01-13T20:02:18.302Z,8.82
2023-01-13T20:04:49.736Z,7.35
2023-01-13T20:07:20.942Z,8.13
2023-01-13T20:09:51.638Z,7.80
2023-01-13T20:12:22.688Z,7.25
2023-01-13T20:14:53.546Z,6.88
2023-01-13T20:17:27.881Z,6.57
2023-01-13T20:19:59.767Z,7.40
2023-01-13T20:22:30.564Z,6.72
2023-01-13T20:25:01.290Z,7.55
2023-01-13T20:27:31.853Z,5.85
2023-01-13T20:30:04.377Z,6.95
2023-01-13T20:32:36.717Z,6.10
2023-01-13T20:35:08.652Z,7.00
2023-01-13T20:37:41.088Z,5.35
2023-01-13T20:40:16.160Z,6.43
2023-01-13T20:42:48.480Z,5.93
2023-01-13T20:45:22.448Z,6.38
2023-01-13T20:47:54.641Z,4.95
2023-01-13T20:50:25.310Z,6.57
2023-01-13T20:52:55.888Z,6.35
2023-01-13T20:55:27.169Z,6.55
2023-01-13T20:57:58.897Z,5.65
2023-01-13T21:03:16.124Z,5.95
2023-01-13T21:05:46.664Z,5.13
2023-01-13T21:08:17.263Z,5.63
2023-01-13T21:10:47.938Z,5.25
2023-01-13T21:13:35.202Z,5.80
2023-01-13T21:16:06.002Z,5.50
2023-01-13T21:18:55.537Z,5.95
2023-01-13T21:21:26.654Z,6.35
2023-01-13T21:23:57.650Z,5.20
2023-01-13T21:26:28.587Z,4.68
2023-01-13T21:29:00.759Z,5.25
2023-01-13T21:31:31.291Z,5.30
2023-01-13T21:34:03.346Z,5.22
2023-01-13T21:36:33.785Z,5.80
2023-01-13T21:39:04.331Z,5.95
2023-01-13T21:41:51.590Z,5.53
2023-01-13T21:44:39.901Z,5.15
2023-01-13T21:47:34.626Z,6.10
2023-01-13T21:50:09.780Z,5.97
2023-01-13T21:52:40.444Z,6.10
2023-01-13T21:55:25.673Z,8.15
2023-01-13T21:57:57.676Z,7.13
2023-01-13T22:00:30.678Z,4.72
2023-01-13T22:03:01.092Z,5.32
2023-01-13T22:05:36.287Z,5.43
2023-01-13T22:08:07.282Z,4.90
2023-01-13T22:10:58.225Z,5.85
2023-01-13T22:13:47.632Z,5.55
2023-01-13T22:16:18.616Z,5.22
2023-01-13T22:18:49.085Z,4.53
2023-01-13T22:21:21.407Z,4.25
2023-01-13T22:23:51.879Z,4.65
2023-01-13T22:26:22.413Z,4.47
2023-01-13T22:28:52.865Z,4.00
2023-01-13T22:31:25.633Z,3.80
2023-01-13T22:33:57.135Z,4.00
2023-01-13T22:36:29.272Z,3.67
2023-01-13T22:39:01.305Z,3.40
2023-01-13T22:41:31.756Z,3.55
2023-01-13T22:44:02.241Z,3.88
2023-01-13T22:46:32.666Z,3.70
2023-01-13T22:49:03.195Z,3.83
2023-01-13T22:51:35.485Z,4.20
2023-01-13T22:54:05.970Z,3.22
2023-01-13T22:56:36.985Z,2.92
2023-01-13T22:59:10.375Z,3.22
2023-01-13T23:01:40.924Z,3.10
2023-01-13T23:04:13.671Z,3.13
2023-01-13T23:06:45.802Z,3.55
2023-01-13T23:09:16.298Z,3.30
2023-01-13T23:11:47.836Z,2.83
2023-01-13T23:14:18.532Z,3.50
2023-01-13T23:16:49.314Z,3.50
2023-01-13T23:19:19.847Z,2.90
2023-01-13T23:21:51.904Z,2.70
2023-01-13T23:24:26.605Z,2.72
2023-01-13T23:26:57.033Z,3.53
2023-01-13T23:29:27.561Z,3.30
2023-01-13T23:31:58.030Z,3.25
2023-01-13T23:34:28.648Z,3.10
2023-01-13T23:37:01.001Z,3.20
2023-01-13T23:39:31.651Z,3.33
2023-01-13T23:42:02.245Z,3.20
2023-01-13T23:44:32.864Z,2.90
2023-01-13T23:47:18.061Z,3.80
2023-01-13T23:49:48.986Z,3.55
2023-01-13T23:52:22.184Z,3.35
2023-01-13T23:54:53.996Z,3.70
2023-01-13T23:57:26.795Z,2.90
2023-01-13T23:59:58.957Z,3.42
